Altamont, Kansas
Current Conditions -  °F | °C
As of 4:52 PM on Saturday 20 Dec 2014 (Local Time) from KPPF Reporting Station
Clear Clear  
Wind Chill: 39°   Ceiling: Unl
Heat Index: 43°   Visibility: 10mi
Dew Point: 35°   Wind: 7mph
Humidity: 74%   Direction: 180°S
Pressure: 30.17"   Gusts: NA
Location:  37.19°N, 95.3°W
Report Text: KPPF 202252Z AUTO 18006KT 10SM CLR 06/02 A3017 RMK AO2 SLP219 T00610017
Loading
Personal Weather Stations






























Interactive Weather Map New forecast layout! Learn more

10-Day Weather Forecast

Advertisements
Track Severe Weather on mobile